Impacts METAR Board INFO
IDs:

KSLC - Salt Lake City Intl, UT, US

Updated at: 1438 UTC 22 Feb 2018
Potential Impact None Slight Moderate High
Time22/02Z 22/03Z 22/04Z 22/05Z 22/06Z 22/07Z 22/08Z 22/09Z 22/10Z 22/11Z 22/12Z 22/13Z 22/14Z
VIS 10 10 10 10 10 10 10 10 10 10 10
CIG 210 -- 210 200 -- -- 95 100 110 110 100
CoverBKNSCTBKNBKNSCTSCTBKNBKNOVCBKNBKN
FltCatVFRVFRVFRVFRVFRVFRVFRVFRVFRVFRVFR
WX----------------------
WDir210140130140110150130120160140150
WSpd 3 3 7 5 6 3 6 7 5 5 7
WGst -- -- -- -- -- -- -- -- -- -- --
Raw hourly METARs


KSLC 220354Z 21003KT 10SM SCT095 BKN210 M03/M10 A3008 RMK AO2 SLP214 T10331100
KSLC 220454Z 14003KT 10SM FEW090 SCT110 SCT220 M04/M11 A3007 RMK AO2 SLP209 T10391106
KSLC 220554Z 13007KT 10SM SCT110 BKN210 M05/M11 A3006 RMK AO2 SLP203 4/004 T10501111 10000 21061 58008
KSLC 220654Z 14005KT 10SM SCT110 BKN200 M06/M12 A3006 RMK AO2 SLP205 T10611117 400001094
KSLC 220754Z 11006KT 10SM SCT110 SCT200 M07/M12 A3005 RMK AO2 SLP202 T10671117
KSLC 220854Z 15003KT 10SM SCT110 SCT200 M07/M11 A3004 RMK AO2 SLP195 T10671111 58007
KSLC 220954Z 13006KT 10SM BKN095 BKN200 M07/M12 A3002 RMK AO2 SLP189 T10721117
KSLC 221054Z 12007KT 10SM BKN100 BKN200 M06/M10 A3000 RMK AO2 SLP180 T10561100
KSLC 221154Z 16005KT 10SM FEW075 OVC110 M05/M09 A2999 RMK AO2 SLP174 T10501094 11050 21072 56014
KSLC 221254Z 14005KT 10SM FEW075 BKN110 M05/M10 A2998 RMK AO2 SLP174 T10501100
KSLC 221354Z 15007KT 10SM BKN100 M04/M10 A2998 RMK AO2 SLP176 T10391100